Time;durP1;ratioP1;P1;durP2;ratioP2;P2;SDS_P1;SDS_P2;PMS_P1;PMS_P2;Temp;Humidity;BMP_temperature;BMP_pressure;BME280_temperature;BME280_humidity;BME280_pressure;Samples;Min_cycle;Max_cycle;Signal;HPM_P1;HPM_P2
2024/01/06 00:01:15;;;;;;;;;;;15.40;99.90;;;;;;5091713;28;20383;-82
2024/01/06 00:03:40;;;;;;;;;;;15.40;99.90;;;;;;5091128;28;19908;-83
2024/01/06 00:06:06;;;;;;;;;;;15.40;99.90;;;;;;5091636;28;20358;-82
2024/01/06 00:08:32;;;;;;;;;;;15.40;99.90;;;;;;5089632;28;19916;-82
2024/01/06 00:10:58;;;;;;;;;;;15.30;99.90;;;;;;5091313;28;20225;-81
2024/01/06 00:13:24;;;;;;;;;;;15.40;99.90;;;;;;5089691;28;19966;-83
2024/01/06 00:15:50;;;;;;;;;;;15.30;99.90;;;;;;5089495;28;19962;-83
2024/01/06 00:18:15;;;;;;;;;;;15.30;99.90;;;;;;5090968;28;19972;-82
2024/01/06 00:20:41;;;;;;;;;;;15.30;99.90;;;;;;5091125;28;20241;-81
2024/01/06 00:23:07;;;;;;;;;;;15.30;99.90;;;;;;5090886;28;20336;-82
2024/01/06 00:25:33;;;;;;;;;;;15.30;99.90;;;;;;5090869;28;19908;-82
2024/01/06 00:27:59;;;;;;;;;;;15.30;99.90;;;;;;5090776;28;19957;-82
2024/01/06 00:30:24;;;;;;;;;;;15.30;99.90;;;;;;5089711;28;20334;-82
2024/01/06 00:32:50;;;;;;;;;;;15.30;99.90;;;;;;5090855;28;19908;-81
2024/01/06 00:35:16;;;;;;;;;;;15.20;99.90;;;;;;5090598;28;19918;-82
2024/01/06 00:37:42;;;;;;;;;;;15.20;99.90;;;;;;5090250;28;19967;-83
2024/01/06 00:40:09;;;;;;;;;;;15.20;99.90;;;;;;5087709;28;19908;-82
2024/01/06 00:42:35;;;;;;;;;;;15.20;99.90;;;;;;5088058;28;20015;-83
2024/01/06 00:45:01;;;;;;;;;;;15.20;99.90;;;;;;5089897;28;20023;-82
2024/01/06 00:47:27;;;;;;;;;;;15.20;99.90;;;;;;5088928;28;19909;-83
2024/01/06 00:49:53;;;;;;;;;;;15.30;99.90;;;;;;5087852;28;19920;-83
2024/01/06 00:52:18;;;;;;;;;;;15.20;99.90;;;;;;5088427;28;19915;-83
2024/01/06 00:54:47;;;;;;;;;;;15.30;99.90;;;;;;5088256;28;19908;-83
2024/01/06 00:57:12;;;;;;;;;;;15.20;99.90;;;;;;5089642;28;20009;-83
2024/01/06 00:59:38;;;;;;;;;;;15.20;99.90;;;;;;5089542;28;19916;-83
2024/01/06 01:02:04;;;;;;;;;;;15.20;99.90;;;;;;5090221;28;20371;-82
2024/01/06 01:04:30;;;;;;;;;;;15.20;99.90;;;;;;5089292;28;19908;-82
2024/01/06 01:06:56;;;;;;;;;;;15.20;99.90;;;;;;5089704;28;19908;-82
2024/01/06 01:09:21;;;;;;;;;;;15.20;99.90;;;;;;5089802;28;20010;-81
2024/01/06 01:11:47;;;;;;;;;;;15.20;99.90;;;;;;5089434;28;19908;-83
2024/01/06 01:14:13;;;;;;;;;;;15.20;99.90;;;;;;5090579;28;19908;-83
2024/01/06 01:16:39;;;;;;;;;;;15.20;99.90;;;;;;5092797;28;19963;-83
2024/01/06 01:19:05;;;;;;;;;;;15.20;99.90;;;;;;5091432;28;19951;-82
2024/01/06 01:21:30;;;;;;;;;;;15.20;99.90;;;;;;5091454;28;19915;-83
2024/01/06 01:23:57;;;;;;;;;;;15.20;99.90;;;;;;5091214;28;19943;-83
2024/01/06 01:26:23;;;;;;;;;;;15.20;99.90;;;;;;5093272;28;19969;-82
2024/01/06 01:28:48;;;;;;;;;;;15.20;99.90;;;;;;5092708;28;20343;-81
2024/01/06 01:31:14;;;;;;;;;;;15.20;99.90;;;;;;5092614;28;19908;-83
2024/01/06 01:33:43;;;;;;;;;;;15.20;99.90;;;;;;5092755;28;19948;-82
2024/01/06 01:36:09;;;;;;;;;;;15.30;99.90;;;;;;5092474;28;20253;-82
2024/01/06 01:38:34;;;;;;;;;;;15.30;99.90;;;;;;5014520;28;2216037;-83
2024/01/06 01:41:00;;;;;;;;;;;15.30;99.90;;;;;;5093224;28;19991;-82
2024/01/06 01:43:28;;;;;;;;;;;15.30;99.90;;;;;;5093792;28;19908;-82
2024/01/06 01:45:56;;;;;;;;;;;15.30;99.90;;;;;;5093618;28;19908;-81
2024/01/06 01:48:22;;;;;;;;;;;15.30;99.90;;;;;;5093744;28;19923;-79
2024/01/06 01:50:48;;;;;;;;;;;15.30;99.90;;;;;;5093622;28;19908;-82
2024/01/06 01:53:14;;;;;;;;;;;15.30;99.90;;;;;;5093547;28;20273;-82
2024/01/06 01:55:43;;;;;;;;;;;15.20;99.90;;;;;;5093206;28;20041;-83
2024/01/06 01:58:10;;;;;;;;;;;15.30;99.90;;;;;;5091694;28;19994;-83
2024/01/06 02:00:36;;;;;;;;;;;15.30;99.90;;;;;;5093376;28;19962;-82
2024/01/06 02:03:04;;;;;;;;;;;15.30;99.90;;;;;;5093226;28;19999;-81
2024/01/06 02:05:30;;;;;;;;;;;15.40;99.90;;;;;;5051729;28;20337;-82
2024/01/06 02:07:56;;;;;;;;;;;15.40;99.90;;;;;;5053143;28;19976;-82
2024/01/06 02:10:22;;;;;;;;;;;15.40;99.90;;;;;;5051585;28;20330;-82
2024/01/06 02:12:49;;;;;;;;;;;15.50;99.90;;;;;;5052795;28;20207;-83
2024/01/06 02:15:14;;;;;;;;;;;15.50;99.90;;;;;;5053104;28;19908;-83
2024/01/06 02:17:40;;;;;;;;;;;15.60;99.90;;;;;;5051070;28;19943;-81
2024/01/06 02:20:09;;;;;;;;;;;15.50;99.90;;;;;;5052667;28;19912;-82
2024/01/06 02:22:38;;;;;;;;;;;15.60;99.90;;;;;;5052872;28;19952;-82
2024/01/06 02:25:07;;;;;;;;;;;15.60;99.90;;;;;;5050592;28;20386;-82
2024/01/06 02:27:33;;;;;;;;;;;15.60;99.90;;;;;;5052532;28;19909;-82
2024/01/06 02:29:59;;;;;;;;;;;15.60;99.90;;;;;;5051197;28;19909;-83
2024/01/06 02:32:25;;;;;;;;;;;15.60;99.90;;;;;;5052504;28;19939;-81
2024/01/06 02:34:51;;;;;;;;;;;15.70;99.90;;;;;;5082266;28;19957;-82
2024/01/06 02:37:20;;;;;;;;;;;15.70;99.90;;;;;;5092650;28;19916;-81
2024/01/06 02:39:46;;;;;;;;;;;15.70;99.90;;;;;;5093026;28;19946;-82
2024/01/06 02:42:12;;;;;;;;;;;15.70;99.90;;;;;;5092876;28;19916;-83
2024/01/06 02:44:37;;;;;;;;;;;15.70;99.90;;;;;;5092850;28;20014;-83
2024/01/06 02:47:03;;;;;;;;;;;15.70;99.90;;;;;;5091254;28;19908;-82
2024/01/06 02:49:29;;;;;;;;;;;15.70;99.90;;;;;;5091145;28;20275;-82
2024/01/06 02:51:55;;;;;;;;;;;15.70;99.90;;;;;;5092803;28;19967;-83
2024/01/06 02:54:21;;;;;;;;;;;15.70;99.90;;;;;;5091303;28;19908;-82
2024/01/06 02:56:47;;;;;;;;;;;15.70;99.90;;;;;;5092411;28;19974;-81
2024/01/06 02:59:12;;;;;;;;;;;15.60;99.90;;;;;;5092093;28;19928;-83
2024/01/06 03:01:38;;;;;;;;;;;15.60;99.90;;;;;;5092765;28;20063;-83
2024/01/06 03:04:04;;;;;;;;;;;15.50;99.90;;;;;;5092378;28;20356;-83
2024/01/06 03:06:30;;;;;;;;;;;15.50;99.90;;;;;;5092252;28;19912;-82
2024/01/06 03:08:55;;;;;;;;;;;15.50;99.90;;;;;;5090258;28;19982;-83
2024/01/06 03:11:22;;;;;;;;;;;15.50;99.90;;;;;;5092125;28;19924;-82
2024/01/06 03:13:48;;;;;;;;;;;15.50;99.90;;;;;;5090439;28;20250;-82
2024/01/06 03:16:14;;;;;;;;;;;15.50;99.90;;;;;;5091742;28;19916;-81
2024/01/06 03:18:39;;;;;;;;;;;15.40;99.90;;;;;;5089999;28;19999;-82
2024/01/06 03:21:18;;;;;;;;;;;15.40;99.90;;;;;;5091951;28;20361;-82
2024/01/06 03:23:44;;;;;;;;;;;15.30;99.90;;;;;;5092422;28;19918;-82
2024/01/06 03:26:10;;;;;;;;;;;15.30;99.90;;;;;;5091752;28;20273;-82
2024/01/06 03:28:35;;;;;;;;;;;15.30;99.90;;;;;;5091413;28;19972;-82
2024/01/06 03:31:01;;;;;;;;;;;15.30;99.90;;;;;;5091481;28;19908;-82
2024/01/06 03:33:28;;;;;;;;;;;15.40;99.90;;;;;;5091446;28;20387;-81
2024/01/06 03:35:54;;;;;;;;;;;15.40;99.90;;;;;;5091300;28;19935;-82
2024/01/06 03:38:20;;;;;;;;;;;15.40;99.90;;;;;;5090199;28;19920;-82
2024/01/06 03:40:46;;;;;;;;;;;15.40;99.90;;;;;;5091580;28;20006;-82
2024/01/06 03:43:13;;;;;;;;;;;15.40;99.90;;;;;;5089561;28;19960;-81
2024/01/06 03:45:38;;;;;;;;;;;15.40;99.90;;;;;;5089511;28;19908;-82
2024/01/06 03:48:04;;;;;;;;;;;15.40;99.90;;;;;;5091345;28;19909;-81
2024/01/06 03:50:30;;;;;;;;;;;15.30;99.90;;;;;;5091268;28;19920;-82
2024/01/06 03:52:56;;;;;;;;;;;15.30;99.90;;;;;;5091241;28;20368;-82
2024/01/06 03:55:22;;;;;;;;;;;15.30;99.90;;;;;;5091410;28;19912;-83
2024/01/06 03:57:48;;;;;;;;;;;15.30;99.90;;;;;;5089400;28;20404;-83
2024/01/06 04:00:14;;;;;;;;;;;15.30;99.90;;;;;;5091355;28;19914;-82
2024/01/06 04:02:40;;;;;;;;;;;15.30;99.90;;;;;;5089580;28;19912;-83
2024/01/06 04:05:06;;;;;;;;;;;15.30;99.90;;;;;;5091170;28;19909;-82
2024/01/06 04:07:31;;;;;;;;;;;15.30;99.90;;;;;;5091727;28;19956;-82
2024/01/06 04:09:57;;;;;;;;;;;15.30;99.90;;;;;;5090744;28;19912;-83
2024/01/06 04:12:23;;;;;;;;;;;15.30;99.90;;;;;;5089325;28;19988;-82
2024/01/06 04:14:49;;;;;;;;;;;15.30;99.90;;;;;;5088862;28;19912;-82
2024/01/06 04:17:15;;;;;;;;;;;15.30;99.90;;;;;;5089012;28;19983;-82
2024/01/06 04:19:42;;;;;;;;;;;15.30;99.90;;;;;;5090970;28;20375;-82
2024/01/06 04:22:08;;;;;;;;;;;15.40;99.90;;;;;;5089268;28;20228;-81
2024/01/06 04:24:37;;;;;;;;;;;15.40;99.90;;;;;;5090854;28;19908;-81
2024/01/06 04:27:06;;;;;;;;;;;15.50;99.90;;;;;;5088974;28;19985;-81
2024/01/06 04:29:31;;;;;;;;;;;15.40;99.90;;;;;;5088695;28;20387;-82
2024/01/06 04:31:57;;;;;;;;;;;15.40;99.90;;;;;;5090427;28;19938;-81
2024/01/06 04:34:23;;;;;;;;;;;15.50;99.90;;;;;;5090058;28;19907;-82
2024/01/06 04:36:50;;;;;;;;;;;15.50;99.90;;;;;;5088616;28;20039;-82
2024/01/06 04:39:15;;;;;;;;;;;15.60;99.90;;;;;;5090248;28;19920;-82
2024/01/06 04:41:41;;;;;;;;;;;15.60;99.90;;;;;;5090893;28;20269;-83
2024/01/06 04:44:07;;;;;;;;;;;15.60;99.90;;;;;;5088544;28;19916;-82
2024/01/06 04:46:33;;;;;;;;;;;15.60;99.90;;;;;;5090348;28;19908;-81
2024/01/06 04:48:59;;;;;;;;;;;15.60;99.90;;;;;;5088611;28;19908;-83
2024/01/06 04:51:25;;;;;;;;;;;15.60;99.90;;;;;;5090832;28;19912;-83
2024/01/06 04:53:50;;;;;;;;;;;15.60;99.90;;;;;;5091618;28;20394;-83
2024/01/06 04:56:17;;;;;;;;;;;15.60;99.90;;;;;;5089793;28;19916;-83
2024/01/06 04:58:43;;;;;;;;;;;15.60;99.90;;;;;;5091361;28;19909;-82
2024/01/06 05:01:08;;;;;;;;;;;15.60;99.90;;;;;;5091718;28;19915;-82
2024/01/06 05:03:34;;;;;;;;;;;15.60;99.90;;;;;;5091005;28;19912;-82
2024/01/06 05:06:00;;;;;;;;;;;15.50;99.90;;;;;;5089848;28;19920;-82
2024/01/06 05:08:26;;;;;;;;;;;15.50;99.90;;;;;;5091474;28;20044;-82
2024/01/06 05:10:52;;;;;;;;;;;15.50;99.90;;;;;;5091281;28;19947;-82
2024/01/06 05:13:18;;;;;;;;;;;15.50;99.90;;;;;;5089655;28;19931;-83
2024/01/06 05:15:43;;;;;;;;;;;15.60;99.90;;;;;;5091224;28;20345;-82
2024/01/06 05:18:09;;;;;;;;;;;15.60;99.90;;;;;;5089886;28;19912;-83
2024/01/06 05:20:35;;;;;;;;;;;15.50;99.90;;;;;;5089729;28;20360;-83
2024/01/06 05:23:01;;;;;;;;;;;15.60;99.90;;;;;;5091148;28;19934;-83
2024/01/06 05:25:27;;;;;;;;;;;15.50;99.90;;;;;;5089774;28;19907;-83
2024/01/06 05:27:52;;;;;;;;;;;15.50;99.90;;;;;;5089510;28;20384;-82
2024/01/06 05:30:18;;;;;;;;;;;15.60;99.90;;;;;;5091574;28;19908;-82
2024/01/06 05:32:44;;;;;;;;;;;15.50;99.90;;;;;;5091202;28;20372;-84
2024/01/06 05:35:10;;;;;;;;;;;15.60;99.90;;;;;;5089350;28;19919;-83
2024/01/06 05:37:36;;;;;;;;;;;15.50;99.90;;;;;;5089471;28;20011;-83
2024/01/06 05:40:03;;;;;;;;;;;15.60;99.90;;;;;;5091248;28;20360;-83
2024/01/06 05:42:29;;;;;;;;;;;15.60;99.90;;;;;;5091114;28;19908;-83
2024/01/06 05:44:55;;;;;;;;;;;15.60;99.90;;;;;;5090891;28;19953;-83
2024/01/06 05:47:20;;;;;;;;;;;15.60;99.90;;;;;;5089573;28;19951;-83
2024/01/06 05:49:46;;;;;;;;;;;15.60;99.90;;;;;;5091019;28;20008;-83
2024/01/06 05:52:14;;;;;;;;;;;15.70;99.90;;;;;;5090924;28;19908;-83
2024/01/06 05:54:42;;;;;;;;;;;15.70;99.90;;;;;;5090833;28;19915;-82
2024/01/06 05:57:08;;;;;;;;;;;15.70;99.90;;;;;;5089857;28;19916;-83
2024/01/06 05:59:35;;;;;;;;;;;15.60;99.90;;;;;;5090873;28;19920;-84
2024/01/06 06:02:01;;;;;;;;;;;15.60;99.90;;;;;;5094761;28;19915;-83
2024/01/06 06:04:27;;;;;;;;;;;15.50;99.90;;;;;;5094707;28;19908;-82
2024/01/06 06:06:52;;;;;;;;;;;15.50;99.90;;;;;;5093239;28;19912;-82
2024/01/06 06:09:19;;;;;;;;;;;15.40;99.90;;;;;;5092969;28;20300;-83
2024/01/06 06:11:45;;;;;;;;;;;15.40;99.90;;;;;;5092999;28;19908;-83
2024/01/06 06:14:12;;;;;;;;;;;15.40;99.90;;;;;;5094278;28;20313;-83
2024/01/06 06:16:39;;;;;;;;;;;15.40;99.90;;;;;;5092795;28;20006;-83
2024/01/06 06:19:06;;;;;;;;;;;15.40;99.90;;;;;;5092913;28;20279;-83
2024/01/06 06:21:31;;;;;;;;;;;15.30;99.90;;;;;;5094663;28;19908;-82
2024/01/06 06:23:57;;;;;;;;;;;15.30;99.90;;;;;;5094315;28;20075;-82
2024/01/06 06:26:23;;;;;;;;;;;15.30;99.90;;;;;;5094230;28;19970;-82
2024/01/06 06:28:49;;;;;;;;;;;15.30;99.90;;;;;;5092399;28;19930;-83
2024/01/06 06:31:15;;;;;;;;;;;15.30;99.90;;;;;;5092704;28;20421;-83
2024/01/06 06:33:42;;;;;;;;;;;15.30;99.90;;;;;;5093905;28;20007;-82
2024/01/06 06:36:08;;;;;;;;;;;15.30;99.90;;;;;;5094061;28;20391;-82
2024/01/06 06:38:33;;;;;;;;;;;15.30;99.90;;;;;;5093494;28;19920;-82
2024/01/06 06:40:59;;;;;;;;;;;15.40;99.90;;;;;;5093762;28;19963;-83
2024/01/06 06:43:25;;;;;;;;;;;15.40;99.90;;;;;;5093704;28;19915;-83
2024/01/06 06:45:51;;;;;;;;;;;15.40;99.90;;;;;;5092217;28;19948;-83
2024/01/06 06:48:17;;;;;;;;;;;15.40;99.90;;;;;;5093522;28;19915;-83
2024/01/06 06:50:43;;;;;;;;;;;15.50;99.90;;;;;;5093624;28;19952;-82
2024/01/06 06:53:09;;;;;;;;;;;15.50;99.90;;;;;;5093149;28;20022;-83
2024/01/06 06:55:37;;;;;;;;;;;15.50;99.90;;;;;;5093276;28;19919;-83
2024/01/06 06:58:03;;;;;;;;;;;15.50;99.90;;;;;;5092876;28;19975;-82
2024/01/06 07:00:29;;;;;;;;;;;15.50;99.90;;;;;;5093105;28;19915;-83
2024/01/06 07:02:55;;;;;;;;;;;15.50;99.90;;;;;;5092924;28;20007;-82
2024/01/06 07:05:21;;;;;;;;;;;15.60;99.90;;;;;;5093095;28;20283;-82
2024/01/06 07:07:46;;;;;;;;;;;15.60;99.90;;;;;;5091745;28;20026;-83
2024/01/06 07:10:12;;;;;;;;;;;15.50;99.90;;;;;;5093247;28;19912;-82
2024/01/06 07:12:39;;;;;;;;;;;15.60;99.90;;;;;;5090461;28;19908;-83
2024/01/06 07:15:04;;;;;;;;;;;15.60;99.90;;;;;;5093541;28;19915;-82
2024/01/06 07:17:30;;;;;;;;;;;15.60;99.90;;;;;;5092187;28;19990;-83
2024/01/06 07:19:56;;;;;;;;;;;15.70;99.90;;;;;;5094195;28;20361;-83
2024/01/06 07:22:22;;;;;;;;;;;15.60;99.90;;;;;;5094275;28;20293;-82
2024/01/06 07:24:48;;;;;;;;;;;15.60;99.90;;;;;;5093941;28;20328;-83
2024/01/06 07:27:14;;;;;;;;;;;15.60;99.90;;;;;;5094281;28;19991;-82
2024/01/06 07:29:40;;;;;;;;;;;15.60;99.90;;;;;;5093564;28;19954;-82
2024/01/06 07:32:06;;;;;;;;;;;15.60;99.90;;;;;;5093501;28;19908;-83
2024/01/06 07:34:32;;;;;;;;;;;15.70;99.90;;;;;;5093555;28;20102;-82
2024/01/06 07:36:58;;;;;;;;;;;15.70;99.90;;;;;;5093722;28;19916;-83
2024/01/06 07:39:24;;;;;;;;;;;15.70;99.90;;;;;;5093426;28;19920;-83
2024/01/06 07:41:50;;;;;;;;;;;15.90;99.90;;;;;;5092165;28;20280;-83
2024/01/06 07:44:22;;;;;;;;;;;15.80;99.90;;;;;;5093300;28;19908;-81
2024/01/06 07:46:48;;;;;;;;;;;15.90;99.90;;;;;;5093504;28;19908;-82
2024/01/06 07:49:15;;;;;;;;;;;16.00;99.90;;;;;;5093235;28;19908;-82
2024/01/06 07:51:41;;;;;;;;;;;16.00;99.90;;;;;;5091648;28;19915;-83
2024/01/06 07:54:08;;;;;;;;;;;16.10;99.90;;;;;;5092978;28;19991;-83
2024/01/06 07:56:34;;;;;;;;;;;16.10;99.90;;;;;;5093223;28;19965;-82
2024/01/06 07:59:01;;;;;;;;;;;16.10;99.90;;;;;;5091377;28;19908;-82
2024/01/06 08:01:31;;;;;;;;;;;16.10;99.90;;;;;;5091393;28;19908;-82
2024/01/06 08:03:58;;;;;;;;;;;16.10;99.90;;;;;;5092711;28;19908;-81
2024/01/06 08:06:26;;;;;;;;;;;16.20;99.90;;;;;;5092631;28;19951;-82
2024/01/06 08:08:52;;;;;;;;;;;16.30;99.90;;;;;;5092940;28;19908;-82
2024/01/06 08:11:18;;;;;;;;;;;16.30;99.90;;;;;;5092725;28;19915;-82
2024/01/06 08:13:43;;;;;;;;;;;16.40;99.90;;;;;;5092406;28;19908;-81
2024/01/06 08:16:09;;;;;;;;;;;16.30;99.90;;;;;;5091171;28;19973;-83
2024/01/06 08:18:36;;;;;;;;;;;16.30;99.90;;;;;;5091319;28;20023;-83
2024/01/06 08:21:02;;;;;;;;;;;16.40;99.90;;;;;;5092965;28;20253;-83
2024/01/06 08:23:27;;;;;;;;;;;16.40;99.90;;;;;;5091119;28;19909;-82
2024/01/06 08:25:53;;;;;;;;;;;16.50;99.90;;;;;;5090970;28;19919;-83
2024/01/06 08:28:19;;;;;;;;;;;16.50;99.90;;;;;;5090651;28;19908;-83
2024/01/06 08:30:45;;;;;;;;;;;16.50;99.90;;;;;;5091010;28;19956;-82
2024/01/06 08:33:11;;;;;;;;;;;16.50;99.90;;;;;;5092355;28;19908;-83
2024/01/06 08:35:40;;;;;;;;;;;16.50;99.90;;;;;;5092241;28;19951;-82
2024/01/06 08:38:06;;;;;;;;;;;16.50;99.90;;;;;;5092352;28;20002;-84
2024/01/06 08:40:33;;;;;;;;;;;16.40;99.90;;;;;;5090816;28;19969;-83
2024/01/06 08:42:58;;;;;;;;;;;16.40;99.90;;;;;;5091849;28;19975;-83
2024/01/06 08:45:24;;;;;;;;;;;16.40;99.90;;;;;;5092294;28;19915;-82
2024/01/06 08:47:50;;;;;;;;;;;16.30;99.90;;;;;;5092128;28;20007;-83
2024/01/06 08:50:16;;;;;;;;;;;16.20;99.90;;;;;;5092303;28;19909;-81
2024/01/06 08:52:42;;;;;;;;;;;16.20;99.90;;;;;;5090576;28;19974;-83
2024/01/06 08:55:08;;;;;;;;;;;16.20;99.90;;;;;;5092236;28;20333;-83
2024/01/06 08:57:34;;;;;;;;;;;16.20;99.90;;;;;;5091739;28;19916;-84
2024/01/06 08:59:59;;;;;;;;;;;16.20;99.90;;;;;;5091852;28;20070;-83
2024/01/06 09:02:25;;;;;;;;;;;16.20;99.90;;;;;;5091766;28;19944;-82
2024/01/06 09:04:51;;;;;;;;;;;16.20;99.90;;;;;;5091650;28;20020;-82
2024/01/06 09:07:17;;;;;;;;;;;16.30;99.90;;;;;;5090261;28;19916;-83
2024/01/06 09:09:43;;;;;;;;;;;16.20;99.90;;;;;;5091556;28;20398;-83
2024/01/06 09:12:10;;;;;;;;;;;16.30;99.90;;;;;;5091773;28;20045;-83
2024/01/06 09:14:36;;;;;;;;;;;16.20;99.90;;;;;;5091594;28;19994;-82
2024/01/06 09:17:02;;;;;;;;;;;16.20;99.90;;;;;;5090308;28;19916;-82
2024/01/06 09:19:28;;;;;;;;;;;16.20;99.90;;;;;;5092309;28;19908;-83
2024/01/06 09:21:54;;;;;;;;;;;16.10;99.90;;;;;;5091891;28;20002;-82
2024/01/06 09:24:20;;;;;;;;;;;16.10;99.90;;;;;;5092632;28;19951;-83
2024/01/06 09:26:47;;;;;;;;;;;16.00;99.90;;;;;;5092090;28;19961;-81
2024/01/06 09:29:13;;;;;;;;;;;16.00;99.90;;;;;;5092117;28;19919;-82
2024/01/06 09:31:38;;;;;;;;;;;15.90;99.90;;;;;;5091172;28;19909;-83
2024/01/06 09:34:05;;;;;;;;;;;15.90;99.90;;;;;;5090623;28;19947;-82
2024/01/06 09:36:32;;;;;;;;;;;15.90;99.90;;;;;;5095805;28;20023;-83
2024/01/06 09:38:57;;;;;;;;;;;15.70;99.90;;;;;;5096032;28;19920;-83
2024/01/06 09:41:24;;;;;;;;;;;15.60;99.90;;;;;;5095999;28;19919;-84
2024/01/06 09:43:50;;;;;;;;;;;15.60;99.90;;;;;;5094468;28;19964;-82
2024/01/06 09:46:26;;;;;;;;;;;15.60;99.90;;;;;;5094729;28;19909;-81
2024/01/06 09:48:58;;;;;;;;;;;15.50;99.90;;;;;;5095702;28;19915;-82
2024/01/06 09:51:24;;;;;;;;;;;15.40;99.90;;;;;;5094057;28;19912;-83
2024/01/06 09:53:50;;;;;;;;;;;15.40;99.90;;;;;;5096068;28;20060;-82
2024/01/06 09:56:16;;;;;;;;;;;15.30;99.90;;;;;;5093845;28;20364;-83
2024/01/06 09:58:45;;;;;;;;;;;15.40;99.90;;;;;;5095500;28;19931;-83
2024/01/06 10:01:11;;;;;;;;;;;15.40;99.90;;;;;;5094156;28;20297;-83
2024/01/06 10:03:37;;;;;;;;;;;15.50;99.90;;;;;;5093873;28;19909;-82
2024/01/06 10:06:04;;;;;;;;;;;15.50;99.90;;;;;;5095479;28;19912;-82
2024/01/06 10:08:32;;;;;;;;;;;15.50;99.90;;;;;;5095454;28;20324;-82
2024/01/06 10:10:59;;;;;;;;;;;15.60;99.90;;;;;;5095516;28;19908;-84
2024/01/06 10:13:25;;;;;;;;;;;15.60;99.90;;;;;;5093870;28;19908;-83
2024/01/06 10:15:51;;;;;;;;;;;15.60;99.90;;;;;;5093750;28;19909;-83
2024/01/06 10:18:18;;;;;;;;;;;15.60;99.90;;;;;;5095629;28;19961;-83
2024/01/06 10:20:45;;;;;;;;;;;15.60;99.90;;;;;;5093882;28;20229;-84
2024/01/06 10:23:11;;;;;;;;;;;15.60;99.90;;;;;;5094077;28;19916;-84
2024/01/06 10:25:37;;;;;;;;;;;15.70;99.90;;;;;;5093785;28;19908;-85
2024/01/06 10:28:03;;;;;;;;;;;15.70;99.90;;;;;;5093907;28;19922;-83
2024/01/06 10:30:29;;;;;;;;;;;15.60;99.90;;;;;;5093766;28;20221;-84
2024/01/06 10:32:54;;;;;;;;;;;15.60;99.90;;;;;;5095452;28;19908;-83
2024/01/06 10:35:20;;;;;;;;;;;15.60;99.90;;;;;;5093549;28;19908;-83
2024/01/06 10:37:48;;;;;;;;;;;15.50;99.90;;;;;;5094769;28;20017;-83
2024/01/06 10:40:17;;;;;;;;;;;15.50;99.90;;;;;;5093443;28;19952;-84
2024/01/06 10:42:44;;;;;;;;;;;15.50;99.90;;;;;;5093391;28;19922;-82
2024/01/06 10:45:11;;;;;;;;;;;15.50;99.90;;;;;;5094619;28;19914;-83
2024/01/06 10:47:37;;;;;;;;;;;15.50;99.90;;;;;;5094835;28;20003;-83
2024/01/06 10:50:04;;;;;;;;;;;15.40;99.90;;;;;;5093467;28;20299;-83
2024/01/06 10:52:30;;;;;;;;;;;15.30;99.90;;;;;;5094926;28;19936;-83
2024/01/06 10:54:56;;;;;;;;;;;15.30;99.90;;;;;;5093023;28;19908;-81
2024/01/06 10:57:23;;;;;;;;;;;15.20;99.90;;;;;;5094498;28;20424;-82
2024/01/06 10:59:50;;;;;;;;;;;15.10;99.90;;;;;;5094283;28;19908;-83
2024/01/06 11:02:16;;;;;;;;;;;15.00;99.90;;;;;;5094975;28;19972;-81
2024/01/06 11:04:46;;;;;;;;;;;14.90;99.90;;;;;;5094336;28;19908;-82
2024/01/06 11:07:19;;;;;;;;;;;14.80;99.90;;;;;;5094319;28;19960;-82
2024/01/06 11:09:54;;;;;;;;;;;14.40;99.90;;;;;;5093001;28;19927;-81
2024/01/06 11:12:20;;;;;;;;;;;14.20;99.90;;;;;;5094302;28;19908;-81
2024/01/06 11:14:46;;;;;;;;;;;13.70;99.90;;;;;;5094223;28;20236;-82
2024/01/06 11:17:12;;;;;;;;;;;13.10;99.90;;;;;;5094438;28;20474;-81
2024/01/06 11:19:38;;;;;;;;;;;12.60;99.90;;;;;;5092533;28;19980;-82
2024/01/06 11:22:21;;;;;;;;;;;12.20;99.90;;;;;;5094051;28;19908;-82
2024/01/06 11:24:51;;;;;;;;;;;11.90;99.90;;;;;;5094174;28;19944;-81
2024/01/06 11:27:18;;;;;;;;;;;11.70;99.90;;;;;;5092487;28;19915;-81
2024/01/06 11:29:45;;;;;;;;;;;11.50;99.90;;;;;;5093735;28;19912;-81
2024/01/06 11:32:21;;;;;;;;;;;11.50;99.90;;;;;;5092301;28;20352;-83
2024/01/06 11:34:50;;;;;;;;;;;11.50;99.90;;;;;;5092116;28;19915;-83
2024/01/06 11:37:34;;;;;;;;;;;11.40;99.90;;;;;;5091921;28;19916;-82
2024/01/06 11:40:00;;;;;;;;;;;11.40;99.90;;;;;;5092243;28;19916;-83
2024/01/06 11:42:35;;;;;;;;;;;11.40;99.90;;;;;;5093883;28;19908;-83
2024/01/06 11:45:02;;;;;;;;;;;11.50;99.90;;;;;;5093294;28;19914;-82
2024/01/06 11:47:30;;;;;;;;;;;11.50;99.90;;;;;;5093564;28;19915;-83
2024/01/06 11:49:56;;;;;;;;;;;11.60;99.90;;;;;;5093460;28;19915;-82
2024/01/06 11:52:22;;;;;;;;;;;11.80;99.90;;;;;;5093636;28;19908;-82
2024/01/06 11:54:49;;;;;;;;;;;12.00;99.90;;;;;;5093150;28;20433;-82
2024/01/06 11:57:15;;;;;;;;;;;12.30;99.90;;;;;;5091487;28;19912;-82
2024/01/06 11:59:41;;;;;;;;;;;12.40;99.90;;;;;;5092580;28;19908;-83
2024/01/06 12:02:10;;;;;;;;;;;12.50;99.90;;;;;;5092259;28;20018;-82
2024/01/06 12:04:36;;;;;;;;;;;12.50;99.90;;;;;;5093313;28;19911;-83
2024/01/06 12:07:14;;;;;;;;;;;12.60;99.90;;;;;;5091635;28;19915;-82
2024/01/06 12:09:40;;;;;;;;;;;12.70;99.90;;;;;;5093438;28;20008;-83
2024/01/06 12:12:06;;;;;;;;;;;12.80;99.90;;;;;;5092789;28;19970;-82
2024/01/06 12:14:32;;;;;;;;;;;12.70;99.90;;;;;;5092991;28;19915;-82
2024/01/06 12:17:02;;;;;;;;;;;12.80;99.90;;;;;;5093062;28;19916;-82
2024/01/06 12:19:32;;;;;;;;;;;13.00;99.90;;;;;;5091482;28;20024;-82
2024/01/06 12:21:58;;;;;;;;;;;13.10;99.90;;;;;;5091338;28;19916;-82
2024/01/06 12:24:27;;;;;;;;;;;13.30;99.90;;;;;;5092654;28;19965;-82
2024/01/06 12:26:52;;;;;;;;;;;13.40;99.90;;;;;;5092631;28;19908;-81
2024/01/06 12:29:19;;;;;;;;;;;13.60;99.90;;;;;;5091055;28;19938;-82
2024/01/06 12:31:46;;;;;;;;;;;13.60;99.90;;;;;;5090871;28;19908;-83
2024/01/06 12:34:12;;;;;;;;;;;13.60;99.90;;;;;;5092505;28;20007;-82
2024/01/06 12:36:39;;;;;;;;;;;13.40;99.90;;;;;;5092782;28;19963;-83
2024/01/06 12:39:05;;;;;;;;;;;13.00;99.90;;;;;;5092024;28;20310;-82
2024/01/06 12:41:34;;;;;;;;;;;12.70;99.90;;;;;;5092409;28;19912;-82
2024/01/06 12:44:01;;;;;;;;;;;12.60;99.90;;;;;;5091062;28;19908;-82
2024/01/06 12:46:27;;;;;;;;;;;12.60;99.90;;;;;;5092095;28;19908;-82
2024/01/06 12:48:53;;;;;;;;;;;12.60;99.90;;;;;;5090521;28;19908;-82
2024/01/06 12:51:19;;;;;;;;;;;12.70;99.90;;;;;;5091861;28;20305;-82
2024/01/06 12:53:44;;;;;;;;;;;13.10;99.90;;;;;;5092235;28;19908;-83
2024/01/06 12:56:10;;;;;;;;;;;13.20;99.90;;;;;;5091808;28;19908;-80
2024/01/06 12:58:36;;;;;;;;;;;13.40;99.90;;;;;;5091992;28;19915;-83
2024/01/06 13:01:02;;;;;;;;;;;13.40;99.90;;;;;;5091889;28;20434;-82
2024/01/06 13:03:28;;;;;;;;;;;13.60;99.90;;;;;;5091581;28;19960;-82
2024/01/06 13:05:54;;;;;;;;;;;13.30;99.90;;;;;;5090168;28;19912;-83
2024/01/06 13:08:21;;;;;;;;;;;13.30;99.90;;;;;;5091572;28;19974;-82
2024/01/06 13:10:46;;;;;;;;;;;13.40;99.90;;;;;;5095096;28;19911;-82
2024/01/06 13:13:12;;;;;;;;;;;13.60;99.90;;;;;;5096074;28;19922;-83
2024/01/06 13:15:38;;;;;;;;;;;13.60;99.90;;;;;;5095912;28;19965;-80
2024/01/06 13:18:04;;;;;;;;;;;13.60;99.90;;;;;;5094616;28;20011;-81
2024/01/06 13:20:30;;;;;;;;;;;13.50;99.90;;;;;;5096676;28;19923;-83
2024/01/06 13:22:56;;;;;;;;;;;13.30;99.90;;;;;;5096326;28;19908;-82
2024/01/06 13:25:22;;;;;;;;;;;13.10;99.90;;;;;;5096180;28;20040;-83
2024/01/06 13:27:48;;;;;;;;;;;13.10;99.90;;;;;;5096060;28;20064;-82
2024/01/06 13:30:15;;;;;;;;;;;13.10;99.90;;;;;;5095557;28;19994;-82
2024/01/06 13:32:41;;;;;;;;;;;13.00;99.90;;;;;;5094433;28;19909;-83
2024/01/06 13:35:10;;;;;;;;;;;13.20;99.90;;;;;;5094128;28;19908;-83
2024/01/06 13:37:36;;;;;;;;;;;13.40;99.90;;;;;;5095348;28;19927;-82
2024/01/06 13:40:03;;;;;;;;;;;13.50;99.90;;;;;;5094034;28;20003;-82
2024/01/06 13:42:28;;;;;;;;;;;13.50;99.90;;;;;;5095487;28;20364;-82
2024/01/06 13:44:55;;;;;;;;;;;13.60;99.90;;;;;;5093930;28;19908;-81
2024/01/06 13:47:21;;;;;;;;;;;13.60;99.90;;;;;;5095922;28;19969;-81
2024/01/06 13:49:47;;;;;;;;;;;13.70;99.90;;;;;;5095495;28;20363;-82
2024/01/06 13:52:13;;;;;;;;;;;13.70;99.90;;;;;;5094003;28;19908;-82
2024/01/06 13:54:39;;;;;;;;;;;13.70;99.90;;;;;;5095257;28;19934;-82
2024/01/06 13:57:05;;;;;;;;;;;13.70;99.90;;;;;;5095273;28;19916;-82
2024/01/06 13:59:31;;;;;;;;;;;13.50;99.90;;;;;;5094442;28;19962;-82
2024/01/06 14:01:56;;;;;;;;;;;13.40;99.90;;;;;;5094041;28;19912;-82
2024/01/06 14:04:23;;;;;;;;;;;13.40;99.90;;;;;;5095564;28;19908;-82
2024/01/06 14:06:55;;;;;;;;;;;13.30;99.90;;;;;;5095231;28;19931;-81
2024/01/06 14:09:21;;;;;;;;;;;13.20;99.90;;;;;;5095256;28;20069;-83
2024/01/06 14:11:47;;;;;;;;;;;13.30;99.90;;;;;;5095164;28;19908;-82